sensor_id;sensor_type;location;lat;lon;timestamp;P1;durP1;ratioP1;P2;durP2;ratioP2
13263;SDS011;6700;51.988;7.646;2023-06-22T00:00:15;13.67;;;8.53;;
13263;SDS011;6700;51.988;7.646;2023-06-22T00:02:42;9.60;;;8.60;;
13263;SDS011;6700;51.988;7.646;2023-06-22T00:05:09;10.60;;;9.70;;
13263;SDS011;6700;51.988;7.646;2023-06-22T00:07:36;9.80;;;8.85;;
13263;SDS011;6700;51.988;7.646;2023-06-22T00:10:03;10.03;;;9.03;;
13263;SDS011;6700;51.988;7.646;2023-06-22T00:12:30;11.50;;;10.43;;
13263;SDS011;6700;51.988;7.646;2023-06-22T00:14:58;10.48;;;9.52;;
13263;SDS011;6700;51.988;7.646;2023-06-22T00:17:25;11.68;;;10.48;;
13263;SDS011;6700;51.988;7.646;2023-06-22T00:19:52;11.27;;;10.20;;
13263;SDS011;6700;51.988;7.646;2023-06-22T00:22:22;11.23;;;10.23;;
13263;SDS011;6700;51.988;7.646;2023-06-22T00:24:55;11.80;;;10.57;;
13263;SDS011;6700;51.988;7.646;2023-06-22T00:27:22;12.67;;;11.53;;
13263;SDS011;6700;51.988;7.646;2023-06-22T00:29:48;12.60;;;11.50;;
13263;SDS011;6700;51.988;7.646;2023-06-22T00:32:15;12.83;;;11.53;;
13263;SDS011;6700;51.988;7.646;2023-06-22T00:34:43;12.37;;;11.13;;
13263;SDS011;6700;51.988;7.646;2023-06-22T00:37:10;13.43;;;12.03;;
13263;SDS011;6700;51.988;7.646;2023-06-22T00:39:37;12.90;;;11.70;;
13263;SDS011;6700;51.988;7.646;2023-06-22T00:42:04;12.63;;;11.43;;
13263;SDS011;6700;51.988;7.646;2023-06-22T00:44:31;12.93;;;11.67;;
13263;SDS011;6700;51.988;7.646;2023-06-22T00:46:57;14.77;;;12.57;;
13263;SDS011;6700;51.988;7.646;2023-06-22T00:49:26;12.83;;;11.60;;
13263;SDS011;6700;51.988;7.646;2023-06-22T00:51:53;11.90;;;10.80;;
13263;SDS011;6700;51.988;7.646;2023-06-22T00:54:20;12.75;;;11.57;;
13263;SDS011;6700;51.988;7.646;2023-06-22T00:56:53;11.60;;;10.40;;
13263;SDS011;6700;51.988;7.646;2023-06-22T00:59:22;11.90;;;10.70;;
13263;SDS011;6700;51.988;7.646;2023-06-22T01:01:50;12.57;;;11.33;;
13263;SDS011;6700;51.988;7.646;2023-06-22T01:04:17;12.63;;;11.33;;
13263;SDS011;6700;51.988;7.646;2023-06-22T01:06:59;13.40;;;12.20;;
13263;SDS011;6700;51.988;7.646;2023-06-22T01:09:59;13.73;;;12.27;;
13263;SDS011;6700;51.988;7.646;2023-06-22T01:12:40;14.27;;;12.77;;
13263;SDS011;6700;51.988;7.646;2023-06-22T01:15:13;13.45;;;12.15;;
13263;SDS011;6700;51.988;7.646;2023-06-22T01:17:47;12.37;;;11.20;;
13263;SDS011;6700;51.988;7.646;2023-06-22T01:20:15;12.70;;;11.13;;
13263;SDS011;6700;51.988;7.646;2023-06-22T01:22:46;11.80;;;10.70;;
13263;SDS011;6700;51.988;7.646;2023-06-22T01:25:32;12.90;;;11.40;;
13263;SDS011;6700;51.988;7.646;2023-06-22T01:30:50;12.93;;;11.73;;
13263;SDS011;6700;51.988;7.646;2023-06-22T01:33:30;12.97;;;11.57;;
13263;SDS011;6700;51.988;7.646;2023-06-22T01:36:00;14.63;;;12.73;;
13263;SDS011;6700;51.988;7.646;2023-06-22T01:38:29;12.80;;;11.60;;
13263;SDS011;6700;51.988;7.646;2023-06-22T01:40:57;15.40;;;13.00;;
13263;SDS011;6700;51.988;7.646;2023-06-22T01:43:25;13.67;;;12.20;;
13263;SDS011;6700;51.988;7.646;2023-06-22T01:45:56;13.63;;;12.33;;
13263;SDS011;6700;51.988;7.646;2023-06-22T01:48:24;13.17;;;11.90;;
13263;SDS011;6700;51.988;7.646;2023-06-22T01:50:52;13.97;;;12.70;;
13263;SDS011;6700;51.988;7.646;2023-06-22T01:53:22;14.20;;;12.90;;
13263;SDS011;6700;51.988;7.646;2023-06-22T01:55:50;13.67;;;12.47;;
13263;SDS011;6700;51.988;7.646;2023-06-22T01:58:17;13.83;;;12.50;;
13263;SDS011;6700;51.988;7.646;2023-06-22T02:00:52;14.73;;;13.33;;
13263;SDS011;6700;51.988;7.646;2023-06-22T02:03:26;14.30;;;12.73;;
13263;SDS011;6700;51.988;7.646;2023-06-22T02:06:05;14.57;;;13.23;;
13263;SDS011;6700;51.988;7.646;2023-06-22T02:08:40;14.17;;;12.93;;
13263;SDS011;6700;51.988;7.646;2023-06-22T02:11:10;14.30;;;12.97;;
13263;SDS011;6700;51.988;7.646;2023-06-22T02:13:39;15.77;;;13.90;;
13263;SDS011;6700;51.988;7.646;2023-06-22T02:16:10;15.33;;;13.40;;
13263;SDS011;6700;51.988;7.646;2023-06-22T02:18:37;16.43;;;14.93;;
13263;SDS011;6700;51.988;7.646;2023-06-22T02:21:06;16.77;;;15.33;;
13263;SDS011;6700;51.988;7.646;2023-06-22T02:23:33;16.23;;;14.73;;
13263;SDS011;6700;51.988;7.646;2023-06-22T02:26:02;16.40;;;14.77;;
13263;SDS011;6700;51.988;7.646;2023-06-22T02:28:29;16.60;;;15.20;;
13263;SDS011;6700;51.988;7.646;2023-06-22T02:30:56;16.10;;;14.53;;
13263;SDS011;6700;51.988;7.646;2023-06-22T02:33:23;14.93;;;13.50;;
13263;SDS011;6700;51.988;7.646;2023-06-22T02:35:49;15.20;;;13.90;;
13263;SDS011;6700;51.988;7.646;2023-06-22T02:38:16;15.27;;;13.77;;
13263;SDS011;6700;51.988;7.646;2023-06-22T02:40:43;14.70;;;13.30;;
13263;SDS011;6700;51.988;7.646;2023-06-22T02:43:10;16.23;;;14.23;;
13263;SDS011;6700;51.988;7.646;2023-06-22T02:45:37;16.93;;;15.27;;
13263;SDS011;6700;51.988;7.646;2023-06-22T02:48:04;16.43;;;14.73;;
13263;SDS011;6700;51.988;7.646;2023-06-22T02:50:31;16.53;;;15.07;;
13263;SDS011;6700;51.988;7.646;2023-06-22T02:52:58;17.90;;;16.23;;
13263;SDS011;6700;51.988;7.646;2023-06-22T02:55:24;17.63;;;16.03;;
13263;SDS011;6700;51.988;7.646;2023-06-22T02:57:51;19.20;;;16.03;;
13263;SDS011;6700;51.988;7.646;2023-06-22T03:00:19;18.07;;;16.37;;
13263;SDS011;6700;51.988;7.646;2023-06-22T03:02:48;19.53;;;17.83;;
13263;SDS011;6700;51.988;7.646;2023-06-22T03:05:16;19.57;;;17.60;;
13263;SDS011;6700;51.988;7.646;2023-06-22T03:07:45;19.67;;;17.57;;
13263;SDS011;6700;51.988;7.646;2023-06-22T03:10:12;18.57;;;16.77;;
13263;SDS011;6700;51.988;7.646;2023-06-22T03:12:40;18.40;;;16.70;;
13263;SDS011;6700;51.988;7.646;2023-06-22T03:15:08;17.83;;;16.13;;
13263;SDS011;6700;51.988;7.646;2023-06-22T03:17:36;17.90;;;16.33;;
13263;SDS011;6700;51.988;7.646;2023-06-22T03:20:07;18.03;;;16.53;;
13263;SDS011;6700;51.988;7.646;2023-06-22T03:22:37;18.63;;;16.80;;
13263;SDS011;6700;51.988;7.646;2023-06-22T03:25:04;18.57;;;16.80;;
13263;SDS011;6700;51.988;7.646;2023-06-22T03:27:36;18.50;;;16.33;;
13263;SDS011;6700;51.988;7.646;2023-06-22T03:30:03;19.37;;;17.33;;
13263;SDS011;6700;51.988;7.646;2023-06-22T03:32:31;18.67;;;16.97;;
13263;SDS011;6700;51.988;7.646;2023-06-22T03:34:58;20.07;;;18.13;;
13263;SDS011;6700;51.988;7.646;2023-06-22T03:37:28;18.43;;;16.80;;
13263;SDS011;6700;51.988;7.646;2023-06-22T03:39:55;19.40;;;17.53;;
13263;SDS011;6700;51.988;7.646;2023-06-22T03:42:22;18.23;;;16.50;;
13263;SDS011;6700;51.988;7.646;2023-06-22T03:44:48;18.63;;;16.53;;
13263;SDS011;6700;51.988;7.646;2023-06-22T03:47:15;17.50;;;15.80;;
13263;SDS011;6700;51.988;7.646;2023-06-22T03:49:42;18.93;;;17.07;;
13263;SDS011;6700;51.988;7.646;2023-06-22T03:52:09;18.17;;;16.37;;
13263;SDS011;6700;51.988;7.646;2023-06-22T03:54:37;17.50;;;16.00;;
13263;SDS011;6700;51.988;7.646;2023-06-22T03:57:03;17.60;;;15.43;;
13263;SDS011;6700;51.988;7.646;2023-06-22T03:59:31;19.17;;;17.27;;
13263;SDS011;6700;51.988;7.646;2023-06-22T04:01:58;17.77;;;16.10;;
13263;SDS011;6700;51.988;7.646;2023-06-22T04:04:25;16.57;;;15.17;;
13263;SDS011;6700;51.988;7.646;2023-06-22T04:06:52;17.63;;;16.03;;
13263;SDS011;6700;51.988;7.646;2023-06-22T04:09:19;17.93;;;16.13;;
13263;SDS011;6700;51.988;7.646;2023-06-22T04:11:47;17.50;;;15.87;;
13263;SDS011;6700;51.988;7.646;2023-06-22T04:14:14;18.10;;;16.30;;
13263;SDS011;6700;51.988;7.646;2023-06-22T04:16:41;17.10;;;15.50;;
13263;SDS011;6700;51.988;7.646;2023-06-22T04:19:07;17.00;;;15.40;;
13263;SDS011;6700;51.988;7.646;2023-06-22T04:21:40;16.40;;;14.80;;
13263;SDS011;6700;51.988;7.646;2023-06-22T04:24:06;16.80;;;15.20;;
13263;SDS011;6700;51.988;7.646;2023-06-22T04:26:33;16.87;;;14.50;;
13263;SDS011;6700;51.988;7.646;2023-06-22T04:29:03;16.40;;;14.90;;
13263;SDS011;6700;51.988;7.646;2023-06-22T04:31:31;15.77;;;14.37;;
13263;SDS011;6700;51.988;7.646;2023-06-22T04:34:06;16.20;;;14.57;;
13263;SDS011;6700;51.988;7.646;2023-06-22T04:36:34;14.93;;;13.50;;
13263;SDS011;6700;51.988;7.646;2023-06-22T04:39:06;15.90;;;13.60;;
13263;SDS011;6700;51.988;7.646;2023-06-22T04:41:33;14.33;;;13.03;;
13263;SDS011;6700;51.988;7.646;2023-06-22T04:44:14;14.90;;;13.57;;
13263;SDS011;6700;51.988;7.646;2023-06-22T04:46:51;15.07;;;13.47;;
13263;SDS011;6700;51.988;7.646;2023-06-22T04:49:20;16.33;;;13.23;;
13263;SDS011;6700;51.988;7.646;2023-06-22T04:51:48;13.73;;;12.50;;
13263;SDS011;6700;51.988;7.646;2023-06-22T04:54:17;13.80;;;12.53;;
13263;SDS011;6700;51.988;7.646;2023-06-22T04:56:44;14.00;;;12.80;;
13263;SDS011;6700;51.988;7.646;2023-06-22T04:59:12;14.73;;;13.33;;
13263;SDS011;6700;51.988;7.646;2023-06-22T05:01:39;13.67;;;12.37;;
13263;SDS011;6700;51.988;7.646;2023-06-22T05:04:06;14.10;;;12.73;;
13263;SDS011;6700;51.988;7.646;2023-06-22T05:06:33;14.40;;;12.90;;
13263;SDS011;6700;51.988;7.646;2023-06-22T05:09:00;14.83;;;13.30;;
13263;SDS011;6700;51.988;7.646;2023-06-22T05:11:27;16.00;;;14.50;;
13263;SDS011;6700;51.988;7.646;2023-06-22T05:13:54;18.10;;;14.17;;
13263;SDS011;6700;51.988;7.646;2023-06-22T05:16:21;14.18;;;11.98;;
13263;SDS011;6700;51.988;7.646;2023-06-22T05:18:52;13.30;;;12.10;;
13263;SDS011;6700;51.988;7.646;2023-06-22T05:21:21;13.23;;;11.93;;
13263;SDS011;6700;51.988;7.646;2023-06-22T05:23:52;12.18;;;10.82;;
13263;SDS011;6700;51.988;7.646;2023-06-22T05:26:20;12.97;;;11.77;;
13263;SDS011;6700;51.988;7.646;2023-06-22T05:28:47;12.73;;;11.48;;
13263;SDS011;6700;51.988;7.646;2023-06-22T05:31:14;13.23;;;11.90;;
13263;SDS011;6700;51.988;7.646;2023-06-22T05:33:43;11.95;;;10.82;;
13263;SDS011;6700;51.988;7.646;2023-06-22T05:36:10;12.33;;;11.13;;
13263;SDS011;6700;51.988;7.646;2023-06-22T05:38:36;12.60;;;11.30;;
13263;SDS011;6700;51.988;7.646;2023-06-22T05:41:03;11.73;;;10.52;;
13263;SDS011;6700;51.988;7.646;2023-06-22T05:43:31;14.45;;;11.23;;
13263;SDS011;6700;51.988;7.646;2023-06-22T05:45:58;12.15;;;10.95;;
13263;SDS011;6700;51.988;7.646;2023-06-22T05:48:26;13.88;;;11.02;;
13263;SDS011;6700;51.988;7.646;2023-06-22T05:50:53;14.20;;;11.60;;
13263;SDS011;6700;51.988;7.646;2023-06-22T05:53:20;11.88;;;10.73;;
13263;SDS011;6700;51.988;7.646;2023-06-22T05:55:47;12.18;;;10.98;;
13263;SDS011;6700;51.988;7.646;2023-06-22T05:58:14;11.98;;;10.77;;
13263;SDS011;6700;51.988;7.646;2023-06-22T06:00:41;12.40;;;11.30;;
13263;SDS011;6700;51.988;7.646;2023-06-22T06:03:09;12.45;;;11.20;;
13263;SDS011;6700;51.988;7.646;2023-06-22T06:05:40;12.68;;;11.50;;
13263;SDS011;6700;51.988;7.646;2023-06-22T06:08:07;11.90;;;10.70;;
13263;SDS011;6700;51.988;7.646;2023-06-22T06:10:34;11.80;;;9.30;;
13263;SDS011;6700;51.988;7.646;2023-06-22T06:13:01;11.40;;;10.40;;
13263;SDS011;6700;51.988;7.646;2023-06-22T06:15:30;11.77;;;10.68;;
13263;SDS011;6700;51.988;7.646;2023-06-22T06:17:58;12.02;;;9.65;;
13263;SDS011;6700;51.988;7.646;2023-06-22T06:20:25;15.10;;;10.32;;
13263;SDS011;6700;51.988;7.646;2023-06-22T06:22:54;10.88;;;9.77;;
13263;SDS011;6700;51.988;7.646;2023-06-22T06:25:22;11.00;;;9.77;;
13263;SDS011;6700;51.988;7.646;2023-06-22T06:27:50;14.43;;;11.25;;
13263;SDS011;6700;51.988;7.646;2023-06-22T06:30:18;11.23;;;10.05;;
13263;SDS011;6700;51.988;7.646;2023-06-22T06:32:45;10.88;;;9.98;;
13263;SDS011;6700;51.988;7.646;2023-06-22T06:35:13;11.10;;;9.73;;
13263;SDS011;6700;51.988;7.646;2023-06-22T06:37:43;11.90;;;10.57;;
13263;SDS011;6700;51.988;7.646;2023-06-22T06:40:12;11.52;;;9.88;;
13263;SDS011;6700;51.988;7.646;2023-06-22T06:42:41;11.75;;;10.65;;
13263;SDS011;6700;51.988;7.646;2023-06-22T06:47:39;11.13;;;10.02;;
13263;SDS011;6700;51.988;7.646;2023-06-22T06:50:06;10.48;;;9.45;;
13263;SDS011;6700;51.988;7.646;2023-06-22T06:52:33;13.15;;;10.90;;
13263;SDS011;6700;51.988;7.646;2023-06-22T06:55:04;9.82;;;8.93;;
13263;SDS011;6700;51.988;7.646;2023-06-22T06:57:35;10.65;;;9.32;;
13263;SDS011;6700;51.988;7.646;2023-06-22T07:00:04;10.93;;;9.93;;
13263;SDS011;6700;51.988;7.646;2023-06-22T07:02:36;10.07;;;8.90;;
13263;SDS011;6700;51.988;7.646;2023-06-22T07:05:03;10.25;;;8.98;;
13263;SDS011;6700;51.988;7.646;2023-06-22T07:07:31;10.75;;;9.75;;
13263;SDS011;6700;51.988;7.646;2023-06-22T07:10:02;10.07;;;9.05;;
13263;SDS011;6700;51.988;7.646;2023-06-22T07:12:32;12.38;;;9.82;;
13263;SDS011;6700;51.988;7.646;2023-06-22T07:15:03;11.02;;;9.40;;
13263;SDS011;6700;51.988;7.646;2023-06-22T07:17:31;12.63;;;9.35;;
13263;SDS011;6700;51.988;7.646;2023-06-22T07:19:58;11.77;;;10.38;;
13263;SDS011;6700;51.988;7.646;2023-06-22T07:22:25;10.77;;;9.70;;
13263;SDS011;6700;51.988;7.646;2023-06-22T07:24:52;18.17;;;11.23;;
13263;SDS011;6700;51.988;7.646;2023-06-22T07:27:18;10.13;;;9.23;;
13263;SDS011;6700;51.988;7.646;2023-06-22T07:29:46;11.60;;;10.57;;
13263;SDS011;6700;51.988;7.646;2023-06-22T07:32:12;11.57;;;10.52;;
13263;SDS011;6700;51.988;7.646;2023-06-22T07:34:39;12.07;;;10.88;;
13263;SDS011;6700;51.988;7.646;2023-06-22T07:37:07;12.40;;;10.52;;
13263;SDS011;6700;51.988;7.646;2023-06-22T07:39:34;11.05;;;9.95;;
13263;SDS011;6700;51.988;7.646;2023-06-22T07:42:01;14.57;;;11.45;;
13263;SDS011;6700;51.988;7.646;2023-06-22T07:44:28;12.45;;;10.85;;
13263;SDS011;6700;51.988;7.646;2023-06-22T07:46:55;12.52;;;10.70;;
13263;SDS011;6700;51.988;7.646;2023-06-22T07:49:21;13.45;;;11.13;;
13263;SDS011;6700;51.988;7.646;2023-06-22T07:51:48;12.23;;;11.10;;
13263;SDS011;6700;51.988;7.646;2023-06-22T07:54:15;16.05;;;11.00;;
13263;SDS011;6700;51.988;7.646;2023-06-22T07:56:43;12.30;;;10.95;;
13263;SDS011;6700;51.988;7.646;2023-06-22T07:59:09;12.05;;;10.70;;
13263;SDS011;6700;51.988;7.646;2023-06-22T08:01:36;11.40;;;10.20;;
13263;SDS011;6700;51.988;7.646;2023-06-22T08:04:03;13.18;;;12.00;;
13263;SDS011;6700;51.988;7.646;2023-06-22T08:06:32;12.55;;;11.35;;
13263;SDS011;6700;51.988;7.646;2023-06-22T08:08:59;13.27;;;11.98;;
13263;SDS011;6700;51.988;7.646;2023-06-22T08:11:25;12.30;;;11.02;;
13263;SDS011;6700;51.988;7.646;2023-06-22T08:13:52;13.20;;;11.63;;
13263;SDS011;6700;51.988;7.646;2023-06-22T08:16:21;13.10;;;11.23;;
13263;SDS011;6700;51.988;7.646;2023-06-22T08:18:48;13.25;;;11.85;;
13263;SDS011;6700;51.988;7.646;2023-06-22T08:21:15;12.60;;;11.50;;
13263;SDS011;6700;51.988;7.646;2023-06-22T08:23:42;12.18;;;11.07;;
13263;SDS011;6700;51.988;7.646;2023-06-22T08:26:08;12.85;;;11.55;;
13263;SDS011;6700;51.988;7.646;2023-06-22T08:28:35;17.30;;;15.60;;
13263;SDS011;6700;51.988;7.646;2023-06-22T08:31:02;15.15;;;13.63;;
13263;SDS011;6700;51.988;7.646;2023-06-22T08:33:30;18.65;;;12.70;;
13263;SDS011;6700;51.988;7.646;2023-06-22T08:35:58;13.50;;;12.35;;
13263;SDS011;6700;51.988;7.646;2023-06-22T08:38:25;13.38;;;12.00;;
13263;SDS011;6700;51.988;7.646;2023-06-22T08:40:52;12.43;;;11.32;;
13263;SDS011;6700;51.988;7.646;2023-06-22T08:43:19;15.15;;;12.82;;
13263;SDS011;6700;51.988;7.646;2023-06-22T08:45:45;13.07;;;11.77;;
13263;SDS011;6700;51.988;7.646;2023-06-22T08:48:12;12.30;;;11.07;;
13263;SDS011;6700;51.988;7.646;2023-06-22T08:50:39;14.85;;;11.65;;
13263;SDS011;6700;51.988;7.646;2023-06-22T08:53:09;17.17;;;12.60;;
13263;SDS011;6700;51.988;7.646;2023-06-22T08:55:35;13.48;;;11.48;;
13263;SDS011;6700;51.988;7.646;2023-06-22T08:58:02;12.13;;;11.02;;
13263;SDS011;6700;51.988;7.646;2023-06-22T09:00:30;15.68;;;10.32;;
13263;SDS011;6700;51.988;7.646;2023-06-22T09:03:00;13.45;;;12.07;;
13263;SDS011;6700;51.988;7.646;2023-06-22T09:05:27;13.70;;;12.40;;
13263;SDS011;6700;51.988;7.646;2023-06-22T09:07:58;13.43;;;11.20;;
13263;SDS011;6700;51.988;7.646;2023-06-22T09:10:25;14.00;;;12.40;;
13263;SDS011;6700;51.988;7.646;2023-06-22T09:12:52;12.23;;;11.07;;
13263;SDS011;6700;51.988;7.646;2023-06-22T09:15:19;13.65;;;12.40;;
13263;SDS011;6700;51.988;7.646;2023-06-22T09:17:46;11.93;;;10.82;;
13263;SDS011;6700;51.988;7.646;2023-06-22T09:20:13;13.05;;;11.68;;
13263;SDS011;6700;51.988;7.646;2023-06-22T09:22:40;14.45;;;12.90;;
13263;SDS011;6700;51.988;7.646;2023-06-22T09:25:07;12.38;;;11.18;;
13263;SDS011;6700;51.988;7.646;2023-06-22T09:27:34;13.05;;;11.90;;
13263;SDS011;6700;51.988;7.646;2023-06-22T09:30:01;13.00;;;11.57;;
13263;SDS011;6700;51.988;7.646;2023-06-22T09:32:29;15.63;;;12.00;;
13263;SDS011;6700;51.988;7.646;2023-06-22T09:34:56;13.75;;;12.55;;
13263;SDS011;6700;51.988;7.646;2023-06-22T09:37:23;14.45;;;12.95;;
13263;SDS011;6700;51.988;7.646;2023-06-22T09:39:50;13.70;;;12.40;;
13263;SDS011;6700;51.988;7.646;2023-06-22T09:42:16;13.73;;;12.40;;
13263;SDS011;6700;51.988;7.646;2023-06-22T09:44:43;13.95;;;12.60;;
13263;SDS011;6700;51.988;7.646;2023-06-22T09:47:10;14.07;;;12.70;;
13263;SDS011;6700;51.988;7.646;2023-06-22T09:49:37;12.75;;;11.65;;
13263;SDS011;6700;51.988;7.646;2023-06-22T09:52:13;12.75;;;11.55;;
13263;SDS011;6700;51.988;7.646;2023-06-22T09:54:40;15.20;;;13.63;;
13263;SDS011;6700;51.988;7.646;2023-06-22T09:57:07;14.73;;;13.13;;
13263;SDS011;6700;51.988;7.646;2023-06-22T09:59:34;13.63;;;12.43;;
13263;SDS011;6700;51.988;7.646;2023-06-22T10:02:01;15.35;;;13.85;;
13263;SDS011;6700;51.988;7.646;2023-06-22T10:04:29;13.18;;;12.07;;
13263;SDS011;6700;51.988;7.646;2023-06-22T10:06:56;12.45;;;11.35;;
13263;SDS011;6700;51.988;7.646;2023-06-22T10:09:23;12.23;;;11.23;;
13263;SDS011;6700;51.988;7.646;2023-06-22T10:11:50;13.02;;;11.90;;
13263;SDS011;6700;51.988;7.646;2023-06-22T10:14:16;14.43;;;13.13;;
13263;SDS011;6700;51.988;7.646;2023-06-22T10:16:44;14.00;;;12.65;;
13263;SDS011;6700;51.988;7.646;2023-06-22T10:19:11;14.57;;;13.38;;
13263;SDS011;6700;51.988;7.646;2023-06-22T10:21:38;14.63;;;13.20;;
13263;SDS011;6700;51.988;7.646;2023-06-22T10:24:05;14.63;;;13.23;;
13263;SDS011;6700;51.988;7.646;2023-06-22T10:26:33;13.15;;;12.15;;
13263;SDS011;6700;51.988;7.646;2023-06-22T10:29:00;12.40;;;11.40;;
13263;SDS011;6700;51.988;7.646;2023-06-22T10:31:42;13.30;;;12.18;;
13263;SDS011;6700;51.988;7.646;2023-06-22T10:34:09;11.98;;;10.82;;
13263;SDS011;6700;51.988;7.646;2023-06-22T10:36:36;12.68;;;11.55;;
13263;SDS011;6700;51.988;7.646;2023-06-22T10:39:03;14.45;;;13.25;;
13263;SDS011;6700;51.988;7.646;2023-06-22T10:41:30;14.35;;;13.15;;
13263;SDS011;6700;51.988;7.646;2023-06-22T10:43:57;14.25;;;12.85;;
13263;SDS011;6700;51.988;7.646;2023-06-22T10:46:24;14.13;;;12.73;;
13263;SDS011;6700;51.988;7.646;2023-06-22T10:48:52;13.45;;;12.35;;
13263;SDS011;6700;51.988;7.646;2023-06-22T10:51:21;14.50;;;13.10;;
13263;SDS011;6700;51.988;7.646;2023-06-22T10:53:48;14.02;;;12.73;;
13263;SDS011;6700;51.988;7.646;2023-06-22T10:56:15;13.32;;;12.07;;
13263;SDS011;6700;51.988;7.646;2023-06-22T10:58:41;18.55;;;16.63;;
13263;SDS011;6700;51.988;7.646;2023-06-22T11:01:10;15.38;;;14.02;;
13263;SDS011;6700;51.988;7.646;2023-06-22T11:03:57;15.55;;;14.13;;
13263;SDS011;6700;51.988;7.646;2023-06-22T11:06:24;13.10;;;11.82;;
13263;SDS011;6700;51.988;7.646;2023-06-22T11:08:51;13.13;;;12.07;;
13263;SDS011;6700;51.988;7.646;2023-06-22T11:11:37;14.18;;;12.85;;
13263;SDS011;6700;51.988;7.646;2023-06-22T11:14:04;17.70;;;15.95;;
13263;SDS011;6700;51.988;7.646;2023-06-22T11:16:31;21.15;;;19.25;;
13263;SDS011;6700;51.988;7.646;2023-06-22T11:18:58;18.70;;;16.95;;
13263;SDS011;6700;51.988;7.646;2023-06-22T11:21:25;17.10;;;15.45;;
13263;SDS011;6700;51.988;7.646;2023-06-22T11:23:52;17.42;;;15.20;;
13263;SDS011;6700;51.988;7.646;2023-06-22T11:26:19;16.15;;;14.60;;
13263;SDS011;6700;51.988;7.646;2023-06-22T11:28:47;16.90;;;15.30;;
13263;SDS011;6700;51.988;7.646;2023-06-22T11:31:14;15.25;;;13.88;;
13263;SDS011;6700;51.988;7.646;2023-06-22T11:33:51;14.20;;;12.90;;
13263;SDS011;6700;51.988;7.646;2023-06-22T11:36:18;15.00;;;13.57;;
13263;SDS011;6700;51.988;7.646;2023-06-22T11:38:45;15.18;;;13.00;;
13263;SDS011;6700;51.988;7.646;2023-06-22T11:41:15;14.82;;;12.63;;
13263;SDS011;6700;51.988;7.646;2023-06-22T11:43:41;14.40;;;12.98;;
13263;SDS011;6700;51.988;7.646;2023-06-22T11:46:08;14.40;;;12.98;;
13263;SDS011;6700;51.988;7.646;2023-06-22T11:48:35;12.73;;;11.50;;
13263;SDS011;6700;51.988;7.646;2023-06-22T11:51:02;14.05;;;12.05;;
13263;SDS011;6700;51.988;7.646;2023-06-22T11:53:29;14.90;;;13.60;;
13263;SDS011;6700;51.988;7.646;2023-06-22T11:55:56;15.20;;;13.60;;
13263;SDS011;6700;51.988;7.646;2023-06-22T11:58:23;14.73;;;13.13;;
13263;SDS011;6700;51.988;7.646;2023-06-22T12:00:49;14.93;;;13.63;;
13263;SDS011;6700;51.988;7.646;2023-06-22T12:03:18;15.80;;;13.57;;
13263;SDS011;6700;51.988;7.646;2023-06-22T12:05:46;15.02;;;13.68;;
13263;SDS011;6700;51.988;7.646;2023-06-22T12:08:13;15.90;;;13.50;;
13263;SDS011;6700;51.988;7.646;2023-06-22T12:10:40;15.38;;;13.27;;
13263;SDS011;6700;51.988;7.646;2023-06-22T12:13:07;13.88;;;12.52;;
13263;SDS011;6700;51.988;7.646;2023-06-22T12:15:33;13.70;;;12.45;;
13263;SDS011;6700;51.988;7.646;2023-06-22T12:18:00;16.60;;;13.85;;
13263;SDS011;6700;51.988;7.646;2023-06-22T12:20:27;20.90;;;18.85;;
13263;SDS011;6700;51.988;7.646;2023-06-22T12:22:55;17.17;;;15.40;;
13263;SDS011;6700;51.988;7.646;2023-06-22T12:25:24;15.85;;;14.27;;
13263;SDS011;6700;51.988;7.646;2023-06-22T12:27:51;15.15;;;13.85;;
13263;SDS011;6700;51.988;7.646;2023-06-22T12:30:17;13.60;;;12.50;;
13263;SDS011;6700;51.988;7.646;2023-06-22T12:32:44;14.20;;;13.00;;
13263;SDS011;6700;51.988;7.646;2023-06-22T12:35:11;14.52;;;11.52;;
13263;SDS011;6700;51.988;7.646;2023-06-22T12:37:41;13.60;;;12.50;;
13263;SDS011;6700;51.988;7.646;2023-06-22T12:40:08;14.13;;;12.80;;
13263;SDS011;6700;51.988;7.646;2023-06-22T12:42:36;13.77;;;12.52;;
13263;SDS011;6700;51.988;7.646;2023-06-22T12:45:03;13.68;;;12.52;;
13263;SDS011;6700;51.988;7.646;2023-06-22T12:47:30;13.48;;;12.00;;
13263;SDS011;6700;51.988;7.646;2023-06-22T12:49:57;14.20;;;12.82;;
13263;SDS011;6700;51.988;7.646;2023-06-22T12:52:24;18.70;;;16.92;;
13263;SDS011;6700;51.988;7.646;2023-06-22T12:54:51;18.25;;;15.40;;
13263;SDS011;6700;51.988;7.646;2023-06-22T12:57:21;16.77;;;14.70;;
13263;SDS011;6700;51.988;7.646;2023-06-22T12:59:48;16.63;;;14.82;;
13263;SDS011;6700;51.988;7.646;2023-06-22T13:02:15;17.38;;;15.68;;
13263;SDS011;6700;51.988;7.646;2023-06-22T13:04:42;20.45;;;17.17;;
13263;SDS011;6700;51.988;7.646;2023-06-22T13:07:09;20.45;;;18.45;;
13263;SDS011;6700;51.988;7.646;2023-06-22T13:09:48;20.50;;;18.40;;
13263;SDS011;6700;51.988;7.646;2023-06-22T13:12:19;20.02;;;17.95;;
13263;SDS011;6700;51.988;7.646;2023-06-22T13:14:46;22.73;;;20.42;;
13263;SDS011;6700;51.988;7.646;2023-06-22T13:17:14;23.20;;;21.00;;
13263;SDS011;6700;51.988;7.646;2023-06-22T13:19:40;23.23;;;21.02;;
13263;SDS011;6700;51.988;7.646;2023-06-22T13:24:56;25.60;;;23.02;;
13263;SDS011;6700;51.988;7.646;2023-06-22T13:27:24;26.40;;;23.65;;
13263;SDS011;6700;51.988;7.646;2023-06-22T13:29:51;24.65;;;22.15;;
13263;SDS011;6700;51.988;7.646;2023-06-22T13:32:18;22.98;;;21.02;;
13263;SDS011;6700;51.988;7.646;2023-06-22T13:34:44;24.73;;;22.55;;
13263;SDS011;6700;51.988;7.646;2023-06-22T13:37:11;25.88;;;23.25;;
13263;SDS011;6700;51.988;7.646;2023-06-22T13:39:38;25.77;;;23.23;;
13263;SDS011;6700;51.988;7.646;2023-06-22T13:42:05;25.00;;;22.90;;
13263;SDS011;6700;51.988;7.646;2023-06-22T13:44:32;26.77;;;23.88;;
13263;SDS011;6700;51.988;7.646;2023-06-22T13:46:59;25.13;;;22.65;;
13263;SDS011;6700;51.988;7.646;2023-06-22T13:49:25;25.38;;;23.20;;
13263;SDS011;6700;51.988;7.646;2023-06-22T13:51:52;27.30;;;24.55;;
13263;SDS011;6700;51.988;7.646;2023-06-22T13:54:19;26.25;;;23.75;;
13263;SDS011;6700;51.988;7.646;2023-06-22T13:56:48;22.58;;;20.45;;
13263;SDS011;6700;51.988;7.646;2023-06-22T13:59:15;25.30;;;23.10;;
13263;SDS011;6700;51.988;7.646;2023-06-22T14:01:42;24.23;;;21.98;;
13263;SDS011;6700;51.988;7.646;2023-06-22T14:04:11;23.17;;;21.27;;
13263;SDS011;6700;51.988;7.646;2023-06-22T14:06:38;24.92;;;22.60;;
13263;SDS011;6700;51.988;7.646;2023-06-22T14:09:05;22.92;;;21.02;;
13263;SDS011;6700;51.988;7.646;2023-06-22T14:11:33;23.75;;;21.75;;
13263;SDS011;6700;51.988;7.646;2023-06-22T14:14:00;23.05;;;20.98;;
13263;SDS011;6700;51.988;7.646;2023-06-22T14:16:27;22.60;;;20.65;;
13263;SDS011;6700;51.988;7.646;2023-06-22T14:18:53;23.27;;;21.38;;
13263;SDS011;6700;51.988;7.646;2023-06-22T14:21:23;21.58;;;19.77;;
13263;SDS011;6700;51.988;7.646;2023-06-22T14:23:51;20.10;;;18.40;;
13263;SDS011;6700;51.988;7.646;2023-06-22T14:26:18;19.48;;;17.75;;
13263;SDS011;6700;51.988;7.646;2023-06-22T14:28:46;17.27;;;15.77;;
13263;SDS011;6700;51.988;7.646;2023-06-22T14:31:14;17.25;;;15.77;;
13263;SDS011;6700;51.988;7.646;2023-06-22T14:33:44;17.45;;;15.95;;
13263;SDS011;6700;51.988;7.646;2023-06-22T14:36:13;18.67;;;17.08;;
13263;SDS011;6700;51.988;7.646;2023-06-22T14:38:45;16.52;;;15.15;;
13263;SDS011;6700;51.988;7.646;2023-06-22T14:41:13;15.52;;;14.05;;
13263;SDS011;6700;51.988;7.646;2023-06-22T14:43:44;15.82;;;14.40;;
13263;SDS011;6700;51.988;7.646;2023-06-22T14:46:15;15.57;;;14.15;;
13263;SDS011;6700;51.988;7.646;2023-06-22T14:48:44;16.55;;;14.85;;